Fly Creek, New York
Current Conditions -  °F | °C
As of 5:35 AM on Saturday 01 Nov 2014 (Local Time) from KNY0 Reporting Station
Overcast Overcast  
Wind Chill: 32°   Ceiling: 5000
Heat Index: 39°   Visibility: 10mi
Dew Point: 30°   Wind: 10mph
Humidity: 70%   Direction: 30°NNE
Pressure: 29.94"   Gusts: NA
Location:  42.72°N, 74.98°W
Report Text: KNY0 010935Z AUTO 03009KT 10SM OVC050 04/M01 A2994 RMK AO2 T00401011
Loading
Personal Weather Stations






























Interactive Weather Map
Tropical Storm Tracking
New forecast layout! Learn more

10-Day Weather Forecast

Advertisements
Track Severe Weather on mobile